sensor_id;sensor_type;location;lat;lon;timestamp;pressure;altitude;pressure_sealevel;temperature;humidity
15050;BME280;7622;42.724;23.250;2022-08-26T00:01:00;94366.59;;;21.17;100.00
15050;BME280;7622;42.724;23.250;2022-08-26T00:03:27;94355.75;;;21.01;100.00
15050;BME280;7622;42.724;23.250;2022-08-26T00:05:54;94359.41;;;21.00;100.00
15050;BME280;7622;42.724;23.250;2022-08-26T00:08:21;94358.50;;;20.88;100.00
15050;BME280;7622;42.724;23.250;2022-08-26T00:10:49;94355.41;;;20.91;100.00
15050;BME280;7622;42.724;23.250;2022-08-26T00:13:16;94358.78;;;20.73;100.00
15050;BME280;7622;42.724;23.250;2022-08-26T00:15:43;94364.66;;;20.75;100.00
15050;BME280;7622;42.724;23.250;2022-08-26T00:18:11;94359.75;;;20.78;100.00
15050;BME280;7622;42.724;23.250;2022-08-26T00:20:38;94359.00;;;20.71;100.00
15050;BME280;7622;42.724;23.250;2022-08-26T00:23:05;94360.72;;;20.84;100.00
15050;BME280;7622;42.724;23.250;2022-08-26T00:25:32;94340.50;;;20.71;100.00
15050;BME280;7622;42.724;23.250;2022-08-26T00:28:00;94357.78;;;20.99;100.00
15050;BME280;7622;42.724;23.250;2022-08-26T00:30:29;94359.56;;;21.05;100.00
15050;BME280;7622;42.724;23.250;2022-08-26T00:32:57;94356.78;;;21.00;100.00
15050;BME280;7622;42.724;23.250;2022-08-26T00:35:25;94349.97;;;20.86;100.00
15050;BME280;7622;42.724;23.250;2022-08-26T00:37:53;94360.84;;;20.96;100.00
15050;BME280;7622;42.724;23.250;2022-08-26T00:40:22;94360.09;;;20.89;100.00
15050;BME280;7622;42.724;23.250;2022-08-26T00:42:49;94349.97;;;20.86;100.00
15050;BME280;7622;42.724;23.250;2022-08-26T00:45:17;94348.59;;;20.76;100.00
15050;BME280;7622;42.724;23.250;2022-08-26T00:47:46;94345.09;;;20.82;100.00
15050;BME280;7622;42.724;23.250;2022-08-26T00:50:16;94354.22;;;20.87;100.00
15050;BME280;7622;42.724;23.250;2022-08-26T00:52:44;94352.53;;;20.67;100.00
15050;BME280;7622;42.724;23.250;2022-08-26T00:55:15;94348.03;;;20.74;100.00
15050;BME280;7622;42.724;23.250;2022-08-26T00:57:43;94359.56;;;20.80;100.00
15050;BME280;7622;42.724;23.250;2022-08-26T01:00:15;94351.25;;;20.76;100.00
15050;BME280;7622;42.724;23.250;2022-08-26T01:02:44;94349.84;;;20.74;100.00
15050;BME280;7622;42.724;23.250;2022-08-26T01:05:12;94348.03;;;20.74;100.00
15050;BME280;7622;42.724;23.250;2022-08-26T01:07:38;94352.97;;;20.89;100.00
15050;BME280;7622;42.724;23.250;2022-08-26T01:10:07;94341.06;;;20.80;100.00
15050;BME280;7622;42.724;23.250;2022-08-26T01:12:39;94348.75;;;20.88;100.00
15050;BME280;7622;42.724;23.250;2022-08-26T01:15:09;94352.78;;;20.91;100.00
15050;BME280;7622;42.724;23.250;2022-08-26T01:17:37;94347.88;;;20.94;100.00
15050;BME280;7622;42.724;23.250;2022-08-26T01:20:10;94347.84;;;21.01;100.00
15050;BME280;7622;42.724;23.250;2022-08-26T01:22:48;94346.25;;;20.93;100.00
15050;BME280;7622;42.724;23.250;2022-08-26T01:25:20;94346.06;;;20.95;100.00
15050;BME280;7622;42.724;23.250;2022-08-26T01:27:48;94335.66;;;21.00;100.00
15050;BME280;7622;42.724;23.250;2022-08-26T01:30:15;94347.13;;;21.12;100.00
15050;BME280;7622;42.724;23.250;2022-08-26T01:32:43;94344.94;;;21.09;100.00
15050;BME280;7622;42.724;23.250;2022-08-26T01:35:11;94348.72;;;21.19;100.00
15050;BME280;7622;42.724;23.250;2022-08-26T01:37:37;94345.59;;;21.29;100.00
15050;BME280;7622;42.724;23.250;2022-08-26T01:40:12;94339.50;;;21.29;100.00
15050;BME280;7622;42.724;23.250;2022-08-26T01:42:41;94339.31;;;21.48;100.00
15050;BME280;7622;42.724;23.250;2022-08-26T01:45:12;94334.44;;;21.27;100.00
15050;BME280;7622;42.724;23.250;2022-08-26T01:47:43;94336.47;;;21.25;100.00
15050;BME280;7622;42.724;23.250;2022-08-26T01:50:14;94313.06;;;21.04;100.00
15050;BME280;7622;42.724;23.250;2022-08-26T01:52:44;94337.56;;;21.11;100.00
15050;BME280;7622;42.724;23.250;2022-08-26T01:55:14;94346.72;;;21.15;100.00
15050;BME280;7622;42.724;23.250;2022-08-26T01:57:43;94333.75;;;21.07;100.00
15050;BME280;7622;42.724;23.250;2022-08-26T02:00:12;94333.50;;;21.15;100.00
15050;BME280;7622;42.724;23.250;2022-08-26T02:02:39;94333.56;;;21.08;100.00
15050;BME280;7622;42.724;23.250;2022-08-26T02:05:10;94338.84;;;21.08;100.00
15050;BME280;7622;42.724;23.250;2022-08-26T02:07:39;94341.97;;;21.23;100.00
15050;BME280;7622;42.724;23.250;2022-08-26T02:10:08;94350.28;;;21.27;100.00
15050;BME280;7622;42.724;23.250;2022-08-26T02:12:36;94326.78;;;21.19;100.00
15050;BME280;7622;42.724;23.250;2022-08-26T02:15:06;94333.09;;;21.11;100.00
15050;BME280;7622;42.724;23.250;2022-08-26T02:17:37;94340.41;;;21.16;100.00
15050;BME280;7622;42.724;23.250;2022-08-26T02:20:06;94331.88;;;21.14;100.00
15050;BME280;7622;42.724;23.250;2022-08-26T02:22:34;94337.16;;;21.14;100.00
15050;BME280;7622;42.724;23.250;2022-08-26T02:25:09;94345.28;;;21.12;100.00
15050;BME280;7622;42.724;23.250;2022-08-26T02:27:38;94327.06;;;21.04;100.00
15050;BME280;7622;42.724;23.250;2022-08-26T02:30:10;94325.69;;;21.27;100.00
15050;BME280;7622;42.724;23.250;2022-08-26T02:32:38;94327.78;;;21.18;100.00
15050;BME280;7622;42.724;23.250;2022-08-26T02:35:06;94328.91;;;21.04;100.00
15050;BME280;7622;42.724;23.250;2022-08-26T02:37:32;94325.03;;;21.06;100.00
15050;BME280;7622;42.724;23.250;2022-08-26T02:40:00;94330.25;;;21.13;100.00
15050;BME280;7622;42.724;23.250;2022-08-26T02:42:27;94331.94;;;21.07;100.00
15050;BME280;7622;42.724;23.250;2022-08-26T02:44:55;94337.31;;;20.94;100.00
15050;BME280;7622;42.724;23.250;2022-08-26T02:47:22;94335.75;;;20.87;100.00
15050;BME280;7622;42.724;23.250;2022-08-26T02:49:50;94336.84;;;20.72;100.00
15050;BME280;7622;42.724;23.250;2022-08-26T02:52:17;94336.34;;;20.57;100.00
15050;BME280;7622;42.724;23.250;2022-08-26T02:54:44;94331.03;;;20.64;100.00
15050;BME280;7622;42.724;23.250;2022-08-26T02:57:11;94328.94;;;20.72;100.00
15050;BME280;7622;42.724;23.250;2022-08-26T02:59:37;94335.03;;;20.73;100.00
15050;BME280;7622;42.724;23.250;2022-08-26T03:02:06;94334.13;;;20.86;100.00
15050;BME280;7622;42.724;23.250;2022-08-26T03:04:35;94340.47;;;21.03;100.00
15050;BME280;7622;42.724;23.250;2022-08-26T03:07:02;94342.09;;;21.04;100.00
15050;BME280;7622;42.724;23.250;2022-08-26T03:09:29;94341.94;;;20.99;100.00
15050;BME280;7622;42.724;23.250;2022-08-26T03:11:57;94343.88;;;20.85;100.00
15050;BME280;7622;42.724;23.250;2022-08-26T03:14:24;94346.16;;;20.75;100.00
15050;BME280;7622;42.724;23.250;2022-08-26T03:16:52;94342.38;;;20.64;100.00
15050;BME280;7622;42.724;23.250;2022-08-26T03:19:21;94338.97;;;20.57;100.00
15050;BME280;7622;42.724;23.250;2022-08-26T03:21:48;94325.88;;;20.44;100.00
15050;BME280;7622;42.724;23.250;2022-08-26T03:24:16;94344.00;;;20.65;100.00
15050;BME280;7622;42.724;23.250;2022-08-26T03:26:43;94343.31;;;20.76;100.00
15050;BME280;7622;42.724;23.250;2022-08-26T03:29:10;94335.50;;;20.63;100.00
15050;BME280;7622;42.724;23.250;2022-08-26T03:31:54;94335.16;;;20.53;100.00
15050;BME280;7622;42.724;23.250;2022-08-26T03:34:22;94336.91;;;20.66;100.00
15050;BME280;7622;42.724;23.250;2022-08-26T03:36:49;94328.19;;;20.65;100.00
15050;BME280;7622;42.724;23.250;2022-08-26T03:39:17;94330.69;;;20.54;100.00
15050;BME280;7622;42.724;23.250;2022-08-26T03:41:44;94332.72;;;20.52;100.00
15050;BME280;7622;42.724;23.250;2022-08-26T03:44:11;94333.81;;;20.69;100.00
15050;BME280;7622;42.724;23.250;2022-08-26T03:46:38;94336.06;;;20.72;100.00
15050;BME280;7622;42.724;23.250;2022-08-26T03:49:06;94345.09;;;20.82;100.00
15050;BME280;7622;42.724;23.250;2022-08-26T03:51:35;94337.47;;;20.74;100.00
15050;BME280;7622;42.724;23.250;2022-08-26T03:54:03;94337.84;;;20.78;100.00
15050;BME280;7622;42.724;23.250;2022-08-26T03:56:31;94349.06;;;20.98;100.00
15050;BME280;7622;42.724;23.250;2022-08-26T03:58:58;94333.81;;;21.00;100.00
15050;BME280;7622;42.724;23.250;2022-08-26T04:01:26;94337.22;;;21.07;100.00
15050;BME280;7622;42.724;23.250;2022-08-26T04:03:52;94336.56;;;20.87;100.00
15050;BME280;7622;42.724;23.250;2022-08-26T04:06:28;94339.72;;;20.96;100.00
15050;BME280;7622;42.724;23.250;2022-08-26T04:08:59;94320.72;;;20.87;100.00
15050;BME280;7622;42.724;23.250;2022-08-26T04:11:29;94339.50;;;20.97;100.00
15050;BME280;7622;42.724;23.250;2022-08-26T04:13:58;94340.47;;;21.03;100.00
15050;BME280;7622;42.724;23.250;2022-08-26T04:16:26;94338.44;;;21.05;100.00
15050;BME280;7622;42.724;23.250;2022-08-26T04:18:53;94340.41;;;21.16;100.00
15050;BME280;7622;42.724;23.250;2022-08-26T04:21:20;94332.94;;;21.06;100.00
15050;BME280;7622;42.724;23.250;2022-08-26T04:23:47;94340.47;;;21.03;100.00
15050;BME280;7622;42.724;23.250;2022-08-26T04:26:17;94338.13;;;20.95;100.00
15050;BME280;7622;42.724;23.250;2022-08-26T04:28:45;94331.78;;;20.96;100.00
15050;BME280;7622;42.724;23.250;2022-08-26T04:31:13;94334.19;;;21.04;100.00
15050;BME280;7622;42.724;23.250;2022-08-26T04:33:40;94334.72;;;21.12;100.00
15050;BME280;7622;42.724;23.250;2022-08-26T04:36:08;94322.59;;;21.05;100.00
15050;BME280;7622;42.724;23.250;2022-08-26T04:38:34;94330.25;;;21.13;100.00
15050;BME280;7622;42.724;23.250;2022-08-26T04:41:02;94337.06;;;21.27;100.00
15050;BME280;7622;42.724;23.250;2022-08-26T04:43:31;94337.38;;;21.37;100.00
15050;BME280;7622;42.724;23.250;2022-08-26T04:45:59;94338.41;;;21.36;100.00
15050;BME280;7622;42.724;23.250;2022-08-26T04:48:27;94331.97;;;21.50;100.00
15050;BME280;7622;42.724;23.250;2022-08-26T04:50:54;94334.78;;;21.55;100.00
15050;BME280;7622;42.724;23.250;2022-08-26T04:53:22;94337.41;;;21.55;100.00
15050;BME280;7622;42.724;23.250;2022-08-26T04:55:48;94333.44;;;21.65;100.00
15050;BME280;7622;42.724;23.250;2022-08-26T04:58:16;94334.19;;;21.72;100.00
15050;BME280;7622;42.724;23.250;2022-08-26T05:00:44;94326.91;;;21.67;100.00
15050;BME280;7622;42.724;23.250;2022-08-26T05:03:12;94335.38;;;21.76;100.00
15050;BME280;7622;42.724;23.250;2022-08-26T05:05:40;94336.13;;;21.83;100.00
15050;BME280;7622;42.724;23.250;2022-08-26T05:08:08;94333.19;;;21.91;100.00
15050;BME280;7622;42.724;23.250;2022-08-26T05:10:38;94340.25;;;21.97;100.00
15050;BME280;7622;42.724;23.250;2022-08-26T05:13:05;94336.97;;;21.95;100.00
15050;BME280;7622;42.724;23.250;2022-08-26T05:15:33;94339.22;;;21.98;100.00
15050;BME280;7622;42.724;23.250;2022-08-26T05:18:02;94335.53;;;21.81;100.00
15050;BME280;7622;42.724;23.250;2022-08-26T05:20:29;94340.50;;;21.89;100.00
15050;BME280;7622;42.724;23.250;2022-08-26T05:22:57;94342.50;;;21.93;100.00
15050;BME280;7622;42.724;23.250;2022-08-26T05:25:25;94339.38;;;22.03;100.00
15050;BME280;7622;42.724;23.250;2022-08-26T05:27:52;94341.72;;;22.11;100.00
15050;BME280;7622;42.724;23.250;2022-08-26T05:30:19;94337.00;;;22.13;100.00
15050;BME280;7622;42.724;23.250;2022-08-26T05:32:46;94345.53;;;22.33;100.00
15050;BME280;7622;42.724;23.250;2022-08-26T05:35:15;94353.59;;;22.38;100.00
15050;BME280;7622;42.724;23.250;2022-08-26T05:37:42;94337.94;;;22.37;100.00
15050;BME280;7622;42.724;23.250;2022-08-26T05:40:09;94345.00;;;22.73;100.00
15050;BME280;7622;42.724;23.250;2022-08-26T05:42:36;94345.84;;;22.85;100.00
15050;BME280;7622;42.724;23.250;2022-08-26T05:45:03;94349.06;;;22.87;100.00
15050;BME280;7622;42.724;23.250;2022-08-26T05:47:30;94351.75;;;22.69;100.00
15050;BME280;7622;42.724;23.250;2022-08-26T05:49:57;94348.75;;;22.65;100.00
15050;BME280;7622;42.724;23.250;2022-08-26T05:52:26;94352.94;;;22.73;100.00
15050;BME280;7622;42.724;23.250;2022-08-26T05:54:53;94345.50;;;22.82;100.00
15050;BME280;7622;42.724;23.250;2022-08-26T05:57:19;94353.91;;;22.90;100.00
15050;BME280;7622;42.724;23.250;2022-08-26T05:59:46;94354.88;;;23.07;100.00
15050;BME280;7622;42.724;23.250;2022-08-26T06:02:13;94353.41;;;23.35;100.00
15050;BME280;7622;42.724;23.250;2022-08-26T06:04:40;94356.28;;;23.45;100.00
15050;BME280;7622;42.724;23.250;2022-08-26T06:07:07;94369.38;;;23.70;100.00
15050;BME280;7622;42.724;23.250;2022-08-26T06:09:36;94360.59;;;23.81;100.00
15050;BME280;7622;42.724;23.250;2022-08-26T06:12:04;94364.31;;;23.57;100.00
15050;BME280;7622;42.724;23.250;2022-08-26T06:14:31;94365.97;;;23.28;100.00
15050;BME280;7622;42.724;23.250;2022-08-26T06:16:57;94362.56;;;22.97;100.00
15050;BME280;7622;42.724;23.250;2022-08-26T06:19:25;94357.75;;;23.06;100.00
15050;BME280;7622;42.724;23.250;2022-08-26T06:21:51;94362.25;;;23.05;100.00
15050;BME280;7622;42.724;23.250;2022-08-26T06:24:19;94371.59;;;23.08;100.00
15050;BME280;7622;42.724;23.250;2022-08-26T06:27:05;94368.03;;;23.14;100.00
15050;BME280;7622;42.724;23.250;2022-08-26T06:29:35;94374.03;;;23.33;100.00
15050;BME280;7622;42.724;23.250;2022-08-26T06:32:03;94354.94;;;23.54;100.00
15050;BME280;7622;42.724;23.250;2022-08-26T06:34:30;94376.00;;;24.07;100.00
15050;BME280;7622;42.724;23.250;2022-08-26T06:36:58;94375.13;;;24.53;100.00
15050;BME280;7622;42.724;23.250;2022-08-26T06:39:26;94366.06;;;24.38;100.00
15050;BME280;7622;42.724;23.250;2022-08-26T06:41:53;94374.91;;;24.43;100.00
15050;BME280;7622;42.724;23.250;2022-08-26T06:44:21;94371.09;;;24.51;100.00
15050;BME280;7622;42.724;23.250;2022-08-26T06:46:48;94381.72;;;24.51;100.00
15050;BME280;7622;42.724;23.250;2022-08-26T06:49:15;94381.38;;;24.76;100.00
15050;BME280;7622;42.724;23.250;2022-08-26T06:51:42;94384.53;;;24.72;100.00
15050;BME280;7622;42.724;23.250;2022-08-26T06:54:09;94383.06;;;24.65;100.00
15050;BME280;7622;42.724;23.250;2022-08-26T06:56:38;94373.41;;;24.76;100.00
15050;BME280;7622;42.724;23.250;2022-08-26T06:59:05;94380.84;;;24.73;100.00
15050;BME280;7622;42.724;23.250;2022-08-26T07:01:36;94376.91;;;25.21;100.00
15050;BME280;7622;42.724;23.250;2022-08-26T07:04:05;94380.28;;;26.00;100.00
15050;BME280;7622;42.724;23.250;2022-08-26T07:06:35;94386.53;;;26.71;100.00
15050;BME280;7622;42.724;23.250;2022-08-26T07:09:04;94375.13;;;27.29;100.00
15050;BME280;7622;42.724;23.250;2022-08-26T07:11:31;94382.47;;;27.44;100.00
15050;BME280;7622;42.724;23.250;2022-08-26T07:13:59;94381.69;;;27.80;100.00
15050;BME280;7622;42.724;23.250;2022-08-26T07:16:26;94360.41;;;27.91;100.00
15050;BME280;7622;42.724;23.250;2022-08-26T07:18:56;94386.78;;;28.24;97.36
15050;BME280;7622;42.724;23.250;2022-08-26T07:21:23;94378.31;;;28.42;94.22
15050;BME280;7622;42.724;23.250;2022-08-26T07:23:51;94380.19;;;27.95;93.05
15050;BME280;7622;42.724;23.250;2022-08-26T07:26:20;94385.03;;;27.61;96.05
15050;BME280;7622;42.724;23.250;2022-08-26T07:28:48;94370.06;;;27.28;98.32
15050;BME280;7622;42.724;23.250;2022-08-26T07:31:19;94384.41;;;26.95;100.00
15050;BME280;7622;42.724;23.250;2022-08-26T07:33:46;94386.94;;;26.85;100.00
15050;BME280;7622;42.724;23.250;2022-08-26T07:36:16;94380.47;;;26.54;100.00
15050;BME280;7622;42.724;23.250;2022-08-26T07:38:44;94375.91;;;26.27;100.00
15050;BME280;7622;42.724;23.250;2022-08-26T07:41:13;94381.28;;;26.54;100.00
15050;BME280;7622;42.724;23.250;2022-08-26T07:43:40;94381.47;;;26.48;100.00
15050;BME280;7622;42.724;23.250;2022-08-26T07:46:07;94379.84;;;26.47;100.00
15050;BME280;7622;42.724;23.250;2022-08-26T07:48:34;94382.44;;;26.42;100.00
15050;BME280;7622;42.724;23.250;2022-08-26T07:51:02;94386.03;;;26.31;100.00
15050;BME280;7622;42.724;23.250;2022-08-26T07:53:30;94381.69;;;26.24;100.00
15050;BME280;7622;42.724;23.250;2022-08-26T07:55:57;94383.84;;;26.06;100.00
15050;BME280;7622;42.724;23.250;2022-08-26T07:58:24;94392.28;;;26.03;100.00
15050;BME280;7622;42.724;23.250;2022-08-26T08:00:51;94375.84;;;26.06;100.00
15050;BME280;7622;42.724;23.250;2022-08-26T08:03:18;94397.81;;;26.35;100.00
15050;BME280;7622;42.724;23.250;2022-08-26T08:05:45;94389.13;;;26.66;100.00
15050;BME280;7622;42.724;23.250;2022-08-26T08:08:13;94395.66;;;26.53;100.00
15050;BME280;7622;42.724;23.250;2022-08-26T08:10:41;94383.88;;;26.49;100.00
15050;BME280;7622;42.724;23.250;2022-08-26T08:13:10;94380.91;;;26.67;100.00
15050;BME280;7622;42.724;23.250;2022-08-26T08:15:37;94369.72;;;26.49;100.00
15050;BME280;7622;42.724;23.250;2022-08-26T08:18:05;94389.31;;;26.59;100.00
15050;BME280;7622;42.724;23.250;2022-08-26T08:20:32;94288.84;;;26.11;100.00
15050;BME280;7622;42.724;23.250;2022-08-26T08:23:00;94383.47;;;26.84;100.00
15050;BME280;7622;42.724;23.250;2022-08-26T08:25:29;94386.16;;;27.38;100.00
15050;BME280;7622;42.724;23.250;2022-08-26T08:27:57;94390.38;;;27.34;98.63
15050;BME280;7622;42.724;23.250;2022-08-26T08:30:24;94389.41;;;27.45;99.36
15050;BME280;7622;42.724;23.250;2022-08-26T08:32:51;94378.06;;;27.60;97.44
15050;BME280;7622;42.724;23.250;2022-08-26T08:35:19;94378.50;;;27.83;97.48
15050;BME280;7622;42.724;23.250;2022-08-26T08:37:47;94393.06;;;28.03;94.73
15050;BME280;7622;42.724;23.250;2022-08-26T08:40:15;94382.78;;;28.79;91.17
15050;BME280;7622;42.724;23.250;2022-08-26T08:42:45;94378.56;;;29.13;88.66
15050;BME280;7622;42.724;23.250;2022-08-26T08:45:19;94383.91;;;29.18;87.57
15050;BME280;7622;42.724;23.250;2022-08-26T08:47:50;94376.16;;;29.07;86.50
15050;BME280;7622;42.724;23.250;2022-08-26T08:50:23;94376.53;;;28.63;88.66
15050;BME280;7622;42.724;23.250;2022-08-26T08:52:57;94362.75;;;28.24;88.97
15050;BME280;7622;42.724;23.250;2022-08-26T08:55:34;94362.28;;;28.42;84.99
15050;BME280;7622;42.724;23.250;2022-08-26T08:58:05;94372.06;;;28.84;80.41
15050;BME280;7622;42.724;23.250;2022-08-26T09:00:43;94371.06;;;28.95;84.72
15050;BME280;7622;42.724;23.250;2022-08-26T09:03:22;94364.16;;;29.60;79.14
15050;BME280;7622;42.724;23.250;2022-08-26T09:05:51;94362.03;;;29.57;79.05
15050;BME280;7622;42.724;23.250;2022-08-26T09:08:23;94363.84;;;29.26;77.71
15050;BME280;7622;42.724;23.250;2022-08-26T09:10:54;94360.34;;;29.05;78.39
15050;BME280;7622;42.724;23.250;2022-08-26T09:13:22;94360.63;;;29.14;65.04
15050;BME280;7622;42.724;23.250;2022-08-26T09:15:58;94363.34;;;30.00;63.65
15050;BME280;7622;42.724;23.250;2022-08-26T09:18:37;94360.38;;;30.11;61.45
15050;BME280;7622;42.724;23.250;2022-08-26T09:21:09;94351.72;;;30.30;64.41
15050;BME280;7622;42.724;23.250;2022-08-26T09:23:38;94355.00;;;30.11;66.99
15050;BME280;7622;42.724;23.250;2022-08-26T09:26:14;94341.84;;;30.84;60.95
15050;BME280;7622;42.724;23.250;2022-08-26T09:28:44;94345.16;;;31.54;58.68
15050;BME280;7622;42.724;23.250;2022-08-26T09:31:18;94328.31;;;31.10;52.39
15050;BME280;7622;42.724;23.250;2022-08-26T09:33:46;94346.31;;;31.04;53.06
15050;BME280;7622;42.724;23.250;2022-08-26T09:36:19;94350.34;;;31.07;52.98
15050;BME280;7622;42.724;23.250;2022-08-26T09:38:50;94350.25;;;30.73;51.85
15050;BME280;7622;42.724;23.250;2022-08-26T09:41:27;94352.88;;;30.13;52.59
15050;BME280;7622;42.724;23.250;2022-08-26T09:44:23;94349.34;;;30.28;52.15
15050;BME280;7622;42.724;23.250;2022-08-26T09:46:54;94360.94;;;29.83;54.94
15050;BME280;7622;42.724;23.250;2022-08-26T09:49:26;94355.50;;;30.29;50.69
15050;BME280;7622;42.724;23.250;2022-08-26T09:52:15;94354.44;;;30.25;52.25
15050;BME280;7622;42.724;23.250;2022-08-26T09:54:43;94343.25;;;29.87;49.45
15050;BME280;7622;42.724;23.250;2022-08-26T09:57:17;94352.66;;;29.39;50.06
15050;BME280;7622;42.724;23.250;2022-08-26T09:59:45;94351.53;;;29.05;52.11
15050;BME280;7622;42.724;23.250;2022-08-26T10:02:37;94354.75;;;29.07;51.65
15050;BME280;7622;42.724;23.250;2022-08-26T10:05:09;94344.34;;;29.30;51.14
15050;BME280;7622;42.724;23.250;2022-08-26T10:07:46;94350.75;;;29.04;51.92
15050;BME280;7622;42.724;23.250;2022-08-26T10:10:17;94337.88;;;28.96;52.08
15050;BME280;7622;42.724;23.250;2022-08-26T10:13:02;94334.66;;;28.94;52.49
15050;BME280;7622;42.724;23.250;2022-08-26T10:15:38;94338.97;;;29.15;52.58
15050;BME280;7622;42.724;23.250;2022-08-26T10:18:12;94336.56;;;29.29;51.71
15050;BME280;7622;42.724;23.250;2022-08-26T10:20:51;94331.75;;;29.31;50.95
15050;BME280;7622;42.724;23.250;2022-08-26T10:23:20;94332.56;;;29.31;51.18
15050;BME280;7622;42.724;23.250;2022-08-26T10:25:53;94334.69;;;30.00;49.31
15050;BME280;7622;42.724;23.250;2022-08-26T10:28:34;94334.56;;;30.41;45.60
15050;BME280;7622;42.724;23.250;2022-08-26T10:31:09;94337.09;;;30.71;46.67
15050;BME280;7622;42.724;23.250;2022-08-26T10:33:40;94321.91;;;30.51;44.91
15050;BME280;7622;42.724;23.250;2022-08-26T10:36:10;94335.94;;;30.23;44.40
15050;BME280;7622;42.724;23.250;2022-08-26T10:39:03;94327.09;;;30.28;46.88
15050;BME280;7622;42.724;23.250;2022-08-26T10:41:32;94340.31;;;29.79;44.61
15050;BME280;7622;42.724;23.250;2022-08-26T10:44:00;94330.41;;;29.28;46.23
15050;BME280;7622;42.724;23.250;2022-08-26T10:46:35;94333.38;;;29.32;46.70
15050;BME280;7622;42.724;23.250;2022-08-26T10:49:08;94335.22;;;29.97;45.78
15050;BME280;7622;42.724;23.250;2022-08-26T10:51:41;94333.09;;;29.74;46.29
15050;BME280;7622;42.724;23.250;2022-08-26T10:54:15;94333.88;;;29.85;49.06
15050;BME280;7622;42.724;23.250;2022-08-26T10:56:51;94322.88;;;30.01;46.00
15050;BME280;7622;42.724;23.250;2022-08-26T10:59:27;94322.81;;;30.27;45.21
15050;BME280;7622;42.724;23.250;2022-08-26T11:02:04;94325.03;;;29.89;45.33
15050;BME280;7622;42.724;23.250;2022-08-26T11:04:45;94324.75;;;30.75;44.00
15050;BME280;7622;42.724;23.250;2022-08-26T11:07:34;94322.81;;;31.64;42.40
15050;BME280;7622;42.724;23.250;2022-08-26T11:10:07;94320.34;;;31.96;41.61
15050;BME280;7622;42.724;23.250;2022-08-26T11:12:49;94308.31;;;31.89;40.93
15050;BME280;7622;42.724;23.250;2022-08-26T11:18:40;94299.66;;;31.39;44.96
15050;BME280;7622;42.724;23.250;2022-08-26T11:30:46;94311.91;;;31.16;43.85
15050;BME280;7622;42.724;23.250;2022-08-26T11:33:43;94309.69;;;30.79;42.48
15050;BME280;7622;42.724;23.250;2022-08-26T11:36:28;94308.69;;;30.70;44.05
15050;BME280;7622;42.724;23.250;2022-08-26T11:38:59;94304.69;;;31.12;40.61
15050;BME280;7622;42.724;23.250;2022-08-26T11:41:26;94293.59;;;31.86;38.00
15050;BME280;7622;42.724;23.250;2022-08-26T11:43:56;94301.03;;;32.18;37.59
15050;BME280;7622;42.724;23.250;2022-08-26T11:46:27;94281.44;;;31.89;38.02
15050;BME280;7622;42.724;23.250;2022-08-26T11:48:59;94299.69;;;31.92;37.50
15050;BME280;7622;42.724;23.250;2022-08-26T11:51:26;94299.06;;;32.00;36.74
15050;BME280;7622;42.724;23.250;2022-08-26T11:54:08;94302.56;;;32.24;36.26
15050;BME280;7622;42.724;23.250;2022-08-26T11:56:35;94289.03;;;31.82;38.04
15050;BME280;7622;42.724;23.250;2022-08-26T11:59:07;94290.31;;;31.89;37.78
15050;BME280;7622;42.724;23.250;2022-08-26T12:01:37;94286.97;;;32.26;36.43
15050;BME280;7622;42.724;23.250;2022-08-26T12:04:06;94280.78;;;32.26;35.45
15050;BME280;7622;42.724;23.250;2022-08-26T12:06:35;94284.31;;;32.45;35.80
15050;BME280;7622;42.724;23.250;2022-08-26T12:09:08;94284.78;;;31.81;35.77
15050;BME280;7622;42.724;23.250;2022-08-26T12:11:36;94286.63;;;31.51;36.68
15050;BME280;7622;42.724;23.250;2022-08-26T12:14:07;94272.13;;;31.52;38.15
15050;BME280;7622;42.724;23.250;2022-08-26T12:16:37;94268.69;;;31.13;38.68
15050;BME280;7622;42.724;23.250;2022-08-26T12:19:23;94259.63;;;31.04;38.27
15050;BME280;7622;42.724;23.250;2022-08-26T12:21:53;94259.38;;;31.05;38.03
15050;BME280;7622;42.724;23.250;2022-08-26T12:24:22;94262.69;;;31.26;38.36
15050;BME280;7622;42.724;23.250;2022-08-26T12:26:49;94246.41;;;31.17;35.73
15050;BME280;7622;42.724;23.250;2022-08-26T12:29:29;94260.69;;;31.08;38.21
15050;BME280;7622;42.724;23.250;2022-08-26T12:32:09;94249.50;;;30.96;37.13
15050;BME280;7622;42.724;23.250;2022-08-26T12:34:40;94247.34;;;30.92;36.23
15050;BME280;7622;42.724;23.250;2022-08-26T12:37:09;94258.81;;;30.10;37.21
15050;BME280;7622;42.724;23.250;2022-08-26T12:39:38;94257.47;;;30.12;38.36
15050;BME280;7622;42.724;23.250;2022-08-26T12:42:21;94245.16;;;30.01;38.18
15050;BME280;7622;42.724;23.250;2022-08-26T12:44:56;94260.16;;;30.12;39.15
15050;BME280;7622;42.724;23.250;2022-08-26T12:47:28;94239.22;;;30.20;39.38
15050;BME280;7622;42.724;23.250;2022-08-26T12:50:02;94246.06;;;30.41;39.06
15050;BME280;7622;42.724;23.250;2022-08-26T12:52:32;94250.88;;;30.44;38.87
15050;BME280;7622;42.724;23.250;2022-08-26T12:55:02;94245.53;;;30.39;38.86
15050;BME280;7622;42.724;23.250;2022-08-26T12:57:31;94246.03;;;30.51;37.85
15050;BME280;7622;42.724;23.250;2022-08-26T13:00:21;94257.28;;;30.48;38.27
15050;BME280;7622;42.724;23.250;2022-08-26T13:02:50;94246.38;;;30.29;38.18
15050;BME280;7622;42.724;23.250;2022-08-26T13:05:22;94238.34;;;30.29;38.55
15050;BME280;7622;42.724;23.250;2022-08-26T13:08:12;94238.63;;;30.28;39.16
15050;BME280;7622;42.724;23.250;2022-08-26T13:10:41;94238.53;;;30.43;39.83
15050;BME280;7622;42.724;23.250;2022-08-26T13:13:09;94242.84;;;30.39;39.30
15050;BME280;7622;42.724;23.250;2022-08-26T13:15:35;94235.53;;;30.05;40.87
15050;BME280;7622;42.724;23.250;2022-08-26T13:18:04;94224.25;;;30.13;40.42
15050;BME280;7622;42.724;23.250;2022-08-26T13:20:31;94231.09;;;30.30;39.59